createdAt,value
2023-04-26T00:01:29.329Z,99263.31
2023-04-26T00:03:56.404Z,99263.69
2023-04-26T00:06:23.571Z,99266.94
2023-04-26T00:08:50.250Z,99264.56
2023-04-26T00:11:16.889Z,99274.47
2023-04-26T00:13:43.426Z,99279.94
2023-04-26T00:16:09.935Z,99276.88
2023-04-26T00:18:37.273Z,99279.88
2023-04-26T00:21:03.864Z,99284.88
2023-04-26T00:23:30.784Z,99283.91
2023-04-26T00:25:57.404Z,99277.94
2023-04-26T00:28:23.921Z,99281.53
2023-04-26T00:30:51.157Z,99283.31
2023-04-26T00:33:17.682Z,99290.94
2023-04-26T00:35:44.399Z,99284.88
2023-04-26T00:38:11.000Z,99280.34
2023-04-26T00:40:37.496Z,99278.16
2023-04-26T00:43:05.494Z,99280.81
2023-04-26T00:45:32.156Z,99286.28
2023-04-26T00:48:03.480Z,99278.53
2023-04-26T00:50:32.386Z,99276.16
2023-04-26T00:53:00.817Z,99282.22
2023-04-26T00:55:27.535Z,99275.78
2023-04-26T00:57:55.272Z,99278.66
2023-04-26T01:00:21.806Z,99276.03
2023-04-26T01:02:48.552Z,99268.97
2023-04-26T01:05:15.210Z,99274.13
2023-04-26T01:07:41.928Z,99270.66
2023-04-26T01:10:10.000Z,99267.22
2023-04-26T01:12:39.552Z,99271.84
2023-04-26T01:15:07.081Z,99260.38
2023-04-26T01:17:34.102Z,99271.75
2023-04-26T01:20:00.977Z,99273.88
2023-04-26T01:22:28.477Z,99271.50
2023-04-26T01:24:57.994Z,99269.56
2023-04-26T01:27:24.470Z,99268.69
2023-04-26T01:29:50.990Z,99276.47
2023-04-26T01:32:17.687Z,99273.06
2023-04-26T01:34:46.801Z,99279.03
2023-04-26T01:37:13.420Z,99274.69
2023-04-26T01:39:39.911Z,99275.03
2023-04-26T01:42:06.350Z,99265.94
2023-04-26T01:44:32.982Z,99267.97
2023-04-26T01:46:59.487Z,99269.44
2023-04-26T01:49:26.116Z,99270.63
2023-04-26T01:51:53.294Z,99264.84
2023-04-26T01:54:19.842Z,99268.69
2023-04-26T01:56:46.566Z,99268.31
2023-04-26T01:59:13.141Z,99271.69
2023-04-26T02:01:43.443Z,99271.69
2023-04-26T02:04:10.325Z,99267.44
2023-04-26T02:06:37.968Z,99267.84
2023-04-26T02:09:05.814Z,99259.81
2023-04-26T02:11:32.571Z,99256.84
2023-04-26T02:13:59.072Z,99255.75
2023-04-26T02:16:27.001Z,99258.56
2023-04-26T02:18:54.774Z,99247.53
2023-04-26T02:21:22.357Z,99249.47
2023-04-26T02:23:48.821Z,99252.44
2023-04-26T02:26:15.580Z,99260.78
2023-04-26T02:28:42.214Z,99261.00
2023-04-26T02:31:09.236Z,99266.09
2023-04-26T02:33:35.907Z,99263.31
2023-04-26T02:36:06.411Z,99266.69
2023-04-26T02:38:36.305Z,99264.25
2023-04-26T02:41:04.245Z,99266.53
2023-04-26T02:43:30.937Z,99268.88
2023-04-26T02:45:58.978Z,99275.59
2023-04-26T02:48:25.729Z,99275.72
2023-04-26T02:50:52.535Z,99271.88
2023-04-26T02:53:19.286Z,99275.97
2023-04-26T02:55:46.042Z,99273.13
2023-04-26T02:58:13.009Z,99266.25
2023-04-26T03:00:39.779Z,99266.75
2023-04-26T03:03:06.802Z,99268.88
2023-04-26T03:05:33.320Z,99269.38
2023-04-26T03:07:59.744Z,99265.94
2023-04-26T03:10:26.222Z,99271.81
2023-04-26T03:12:52.677Z,99273.44
2023-04-26T03:15:19.106Z,99258.84
2023-04-26T03:17:45.592Z,99268.16
2023-04-26T03:20:12.482Z,99268.22
2023-04-26T03:22:39.179Z,99281.34
2023-04-26T03:25:07.773Z,99267.16
2023-04-26T03:27:34.718Z,99277.16
2023-04-26T03:30:01.168Z,99271.84
2023-04-26T03:32:27.683Z,99268.63
2023-04-26T03:34:54.196Z,99274.81
2023-04-26T03:37:23.816Z,99271.94
2023-04-26T03:39:53.426Z,99267.13
2023-04-26T03:42:21.002Z,99269.47
2023-04-26T03:44:47.602Z,99265.16
2023-04-26T03:47:15.743Z,99265.63
2023-04-26T03:49:42.632Z,99262.97
2023-04-26T03:52:10.097Z,99259.84
2023-04-26T03:54:36.921Z,99264.53
2023-04-26T03:57:03.810Z,99263.09
2023-04-26T03:59:30.280Z,99258.78
2023-04-26T04:01:56.718Z,99263.25
2023-04-26T04:04:23.379Z,99260.91
2023-04-26T04:06:50.110Z,99262.03
2023-04-26T04:09:18.669Z,99257.47
2023-04-26T04:11:47.542Z,99263.84
2023-04-26T04:14:14.163Z,99264.75
2023-04-26T04:16:40.626Z,99266.44
2023-04-26T04:19:07.586Z,99270.78
2023-04-26T04:21:34.568Z,99266.50
2023-04-26T04:24:01.432Z,99270.91
2023-04-26T04:26:28.958Z,99279.47
2023-04-26T04:28:57.566Z,99277.78
2023-04-26T04:31:25.052Z,99293.91
2023-04-26T04:33:51.902Z,99284.78
2023-04-26T04:36:18.487Z,99287.47
2023-04-26T04:38:45.218Z,99290.69
2023-04-26T04:41:12.349Z,99287.84
2023-04-26T04:43:38.966Z,99294.91
2023-04-26T04:46:05.565Z,99300.84
2023-04-26T04:48:32.489Z,99303.09
2023-04-26T04:50:59.027Z,99305.06
2023-04-26T04:53:25.638Z,99303.59
2023-04-26T04:55:52.272Z,99305.56
2023-04-26T04:58:18.748Z,99306.44
2023-04-26T05:00:46.825Z,99310.63
2023-04-26T05:03:15.038Z,99309.38
2023-04-26T05:05:43.397Z,99312.75
2023-04-26T05:08:09.878Z,99318.66
2023-04-26T05:10:36.444Z,99319.34
2023-04-26T05:13:03.291Z,99317.84
2023-04-26T05:15:30.068Z,99322.31
2023-04-26T05:17:56.598Z,99317.84
2023-04-26T05:20:23.209Z,99320.06
2023-04-26T05:22:49.997Z,99321.66
2023-04-26T05:25:17.530Z,99316.56
2023-04-26T05:27:45.774Z,99330.97
2023-04-26T05:30:12.821Z,99325.75
2023-04-26T05:32:39.268Z,99333.69
2023-04-26T05:35:12.826Z,99334.41
2023-04-26T05:37:39.854Z,99331.88
2023-04-26T05:40:09.076Z,99331.25
2023-04-26T05:42:37.188Z,99331.25
2023-04-26T05:45:04.517Z,99339.91
2023-04-26T05:47:31.205Z,99344.63
2023-04-26T05:49:57.707Z,99340.97
2023-04-26T05:52:26.590Z,99339.81
2023-04-26T05:54:53.280Z,99348.97
2023-04-26T05:57:19.742Z,99341.00
2023-04-26T05:59:46.806Z,99348.09
2023-04-26T06:02:13.336Z,99353.38
2023-04-26T06:04:40.110Z,99356.09
2023-04-26T06:07:07.311Z,99352.69
2023-04-26T06:09:33.991Z,99356.41
2023-04-26T06:12:00.425Z,99359.97
2023-04-26T06:14:30.558Z,99362.84
2023-04-26T06:16:58.309Z,99359.63
2023-04-26T06:19:25.377Z,99358.41
2023-04-26T06:21:55.153Z,99352.88
2023-04-26T06:24:21.671Z,99361.22
2023-04-26T06:26:48.077Z,99360.97
2023-04-26T06:29:14.494Z,99361.41
2023-04-26T06:31:41.166Z,99355.81
2023-04-26T06:34:08.470Z,99353.88
2023-04-26T06:36:35.333Z,99352.81
2023-04-26T06:39:01.766Z,99349.56
2023-04-26T06:41:28.243Z,99344.53
2023-04-26T06:43:55.712Z,99355.34
2023-04-26T06:46:22.289Z,99362.34
2023-04-26T06:48:48.873Z,99355.53
2023-04-26T06:51:15.397Z,99361.31
2023-04-26T06:53:42.132Z,99360.97
2023-04-26T06:56:08.631Z,99367.22
2023-04-26T06:58:35.390Z,99365.69
2023-04-26T07:01:02.006Z,99369.06
2023-04-26T07:03:29.381Z,99372.25
2023-04-26T07:05:56.715Z,99364.06
2023-04-26T07:08:23.389Z,99362.56
2023-04-26T07:10:55.245Z,99365.22
2023-04-26T07:13:21.751Z,99350.22
2023-04-26T07:15:48.440Z,99360.84
2023-04-26T07:18:15.012Z,99364.63
2023-04-26T07:20:41.627Z,99364.03
2023-04-26T07:23:08.091Z,99358.16
2023-04-26T07:25:36.839Z,99365.75
2023-04-26T07:28:04.402Z,99360.75
2023-04-26T07:30:32.465Z,99355.81
2023-04-26T07:32:59.004Z,99339.22
2023-04-26T07:35:25.715Z,99338.66
2023-04-26T07:37:52.218Z,99339.59
2023-04-26T07:40:19.779Z,99345.13
2023-04-26T07:42:46.849Z,99335.59
2023-04-26T07:45:13.456Z,99349.00
2023-04-26T07:47:40.740Z,99342.00
2023-04-26T07:50:08.483Z,99352.13
2023-04-26T07:52:35.044Z,99346.41
2023-04-26T07:55:01.780Z,99346.56
2023-04-26T07:57:28.229Z,99344.38
2023-04-26T07:59:54.840Z,99344.22
2023-04-26T08:02:27.079Z,99341.88
2023-04-26T08:05:01.414Z,99345.22
2023-04-26T08:07:28.483Z,99354.84
2023-04-26T08:09:56.010Z,99349.72
2023-04-26T08:12:25.531Z,99348.84
2023-04-26T08:14:52.158Z,99350.56
2023-04-26T08:17:18.881Z,99354.16
2023-04-26T08:19:45.288Z,99339.34
2023-04-26T08:22:18.641Z,99342.41
2023-04-26T08:24:50.930Z,99351.88
2023-04-26T08:27:19.129Z,99352.81
2023-04-26T08:29:47.008Z,99347.53
2023-04-26T08:32:14.182Z,99340.03
2023-04-26T08:34:41.039Z,99340.56
2023-04-26T08:37:13.904Z,99355.19
2023-04-26T08:39:41.534Z,99344.47
2023-04-26T08:42:21.760Z,99339.19
2023-04-26T08:44:53.282Z,99352.59
2023-04-26T08:47:40.120Z,99345.34
2023-04-26T08:50:12.299Z,99349.38
2023-04-26T08:52:41.545Z,99355.97
2023-04-26T08:55:10.177Z,99349.22
2023-04-26T08:57:40.697Z,99349.22
2023-04-26T09:00:16.046Z,99345.88
2023-04-26T09:02:49.676Z,99346.69
2023-04-26T09:05:17.090Z,99340.22
2023-04-26T09:07:47.121Z,99341.09
2023-04-26T09:10:21.223Z,99328.84
2023-04-26T09:12:53.759Z,99331.75
2023-04-26T09:15:24.561Z,99330.94
2023-04-26T09:17:51.902Z,99330.88
2023-04-26T09:20:19.237Z,99323.41
2023-04-26T09:22:47.062Z,99323.31
2023-04-26T09:25:18.490Z,99317.50
2023-04-26T09:27:46.358Z,99326.22
2023-04-26T09:30:18.407Z,99323.56
2023-04-26T09:32:46.795Z,99328.53
2023-04-26T09:35:35.150Z,99315.38
2023-04-26T09:38:12.754Z,99321.56
2023-04-26T09:40:46.236Z,99326.28
2023-04-26T09:43:16.263Z,99316.25
2023-04-26T09:45:59.072Z,99314.78
2023-04-26T09:48:31.251Z,99318.94
2023-04-26T09:51:09.570Z,99314.81
2023-04-26T09:53:41.640Z,99316.81
2023-04-26T09:56:13.807Z,99321.78
2023-04-26T09:58:58.577Z,99310.50
2023-04-26T10:01:30.325Z,99312.56
2023-04-26T10:04:00.768Z,99304.16
2023-04-26T10:06:28.552Z,99316.63
2023-04-26T10:08:55.540Z,99313.44
2023-04-26T10:11:24.572Z,99304.41
2023-04-26T10:13:51.777Z,99303.47
2023-04-26T10:16:21.266Z,99306.19
2023-04-26T10:18:49.190Z,99305.00
2023-04-26T10:21:37.764Z,99300.69
2023-04-26T10:24:09.895Z,99291.72
2023-04-26T10:26:57.494Z,99283.09
2023-04-26T10:29:27.879Z,99285.84
2023-04-26T10:32:02.010Z,99290.94
2023-04-26T10:34:32.047Z,99285.78
2023-04-26T10:37:18.468Z,99286.84
2023-04-26T10:39:48.751Z,99283.69
2023-04-26T10:42:27.993Z,99283.84
2023-04-26T10:44:57.550Z,99276.91
2023-04-26T10:47:37.122Z,99282.72
2023-04-26T10:50:08.632Z,99277.78
2023-04-26T10:52:58.922Z,99268.94
2023-04-26T10:55:43.327Z,99278.81
2023-04-26T10:58:35.908Z,99269.50
2023-04-26T11:01:13.355Z,99276.63
2023-04-26T11:03:41.290Z,99273.16
2023-04-26T11:06:13.833Z,99267.25
2023-04-26T11:08:40.799Z,99267.09
2023-04-26T11:11:14.017Z,99264.72
2023-04-26T11:13:44.077Z,99261.75
2023-04-26T11:16:13.961Z,99250.13
2023-04-26T11:18:45.860Z,99261.19
2023-04-26T11:21:17.744Z,99261.09
2023-04-26T11:23:54.190Z,99253.38
2023-04-26T11:26:21.116Z,99253.66
2023-04-26T11:28:49.612Z,99247.75
2023-04-26T11:31:19.239Z,99251.22
2023-04-26T11:33:49.912Z,99258.03
2023-04-26T11:36:17.265Z,99251.53
2023-04-26T11:38:43.882Z,99238.97
2023-04-26T11:41:11.382Z,99243.59
2023-04-26T11:43:40.085Z,99244.69
2023-04-26T11:46:09.177Z,99236.97
2023-04-26T11:48:38.744Z,99237.34
2023-04-26T11:51:10.444Z,99230.97
2023-04-26T11:53:41.193Z,99228.78
2023-04-26T11:56:25.389Z,99229.53
2023-04-26T11:58:53.672Z,99225.53
2023-04-26T12:01:23.445Z,99219.03
2023-04-26T12:03:55.226Z,99221.19
2023-04-26T12:06:30.684Z,99224.94
2023-04-26T12:08:57.368Z,99223.88
2023-04-26T12:11:23.857Z,99230.59
2023-04-26T12:13:50.678Z,99227.00
2023-04-26T12:18:52.171Z,99226.59
2023-04-26T12:21:24.402Z,99229.28
2023-04-26T12:23:52.748Z,99228.78
2023-04-26T12:26:20.368Z,99221.56
2023-04-26T12:28:47.129Z,99227.94
2023-04-26T12:31:13.627Z,99220.38
2023-04-26T12:33:40.395Z,99224.91
2023-04-26T12:36:09.853Z,99225.72
2023-04-26T12:38:36.595Z,99220.31
2023-04-26T12:41:04.940Z,99223.94
2023-04-26T12:43:37.303Z,99225.25
2023-04-26T12:46:06.990Z,99220.31
2023-04-26T12:48:33.595Z,99212.56
2023-04-26T12:51:00.355Z,99214.00
2023-04-26T12:53:26.926Z,99206.84
2023-04-26T12:55:53.441Z,99203.44
2023-04-26T12:58:19.939Z,99209.00
2023-04-26T13:00:46.564Z,99207.22
2023-04-26T13:03:14.515Z,99209.25
2023-04-26T13:05:41.881Z,99222.09
2023-04-26T13:08:08.936Z,99211.72
2023-04-26T13:10:37.683Z,99228.22
2023-04-26T13:13:04.228Z,99223.66
2023-04-26T13:15:30.848Z,99221.81
2023-04-26T13:17:57.439Z,99219.22
2023-04-26T13:20:26.223Z,99216.56
2023-04-26T13:22:53.809Z,99218.44
2023-04-26T13:25:20.355Z,99221.84
2023-04-26T13:27:47.024Z,99215.56
2023-04-26T13:30:14.504Z,99211.28
2023-04-26T13:32:41.161Z,99214.69
2023-04-26T13:35:08.601Z,99212.44
2023-04-26T13:37:35.480Z,99213.22
2023-04-26T13:40:02.234Z,99206.75
2023-04-26T13:42:28.732Z,99202.28
2023-04-26T13:44:55.208Z,99206.91
2023-04-26T13:47:23.704Z,99202.03
2023-04-26T13:49:52.717Z,99199.47
2023-04-26T13:52:19.193Z,99196.94
2023-04-26T13:54:45.831Z,99198.38
2023-04-26T13:57:12.277Z,99198.03
2023-04-26T13:59:40.252Z,99192.28
2023-04-26T14:02:07.212Z,99194.00
2023-04-26T14:04:34.068Z,99197.56
2023-04-26T14:07:00.956Z,99187.00
2023-04-26T14:09:27.456Z,99188.22
2023-04-26T14:12:06.610Z,99184.22
2023-04-26T14:14:34.392Z,99181.75
2023-04-26T14:17:01.594Z,99176.97
2023-04-26T14:19:28.043Z,99173.63
2023-04-26T14:21:54.541Z,99173.41
2023-04-26T14:24:21.840Z,99177.75
2023-04-26T14:26:48.569Z,99175.97
2023-04-26T14:29:15.189Z,99172.72
2023-04-26T14:31:42.296Z,99177.81
2023-04-26T14:34:11.328Z,99174.41
2023-04-26T14:36:37.870Z,99175.19
2023-04-26T14:39:04.605Z,99177.84
2023-04-26T14:41:31.236Z,99172.44
2023-04-26T14:43:57.655Z,99171.78
2023-04-26T14:46:24.139Z,99167.06
2023-04-26T14:48:51.118Z,99165.22
2023-04-26T14:51:17.838Z,99165.44
2023-04-26T14:53:44.295Z,99171.00
2023-04-26T14:56:10.820Z,99172.28
2023-04-26T14:58:37.350Z,99169.81
2023-04-26T15:01:04.175Z,99173.09
2023-04-26T15:03:30.814Z,99165.88
2023-04-26T15:05:57.407Z,99162.84
2023-04-26T15:08:23.919Z,99164.44
2023-04-26T15:10:51.409Z,99170.75
2023-04-26T15:13:18.143Z,99166.13
2023-04-26T15:15:44.863Z,99173.59
2023-04-26T15:18:11.495Z,99176.69
2023-04-26T15:20:47.027Z,99170.22
2023-04-26T15:23:13.826Z,99167.69
2023-04-26T15:25:40.514Z,99177.06
2023-04-26T15:28:07.113Z,99174.78
2023-04-26T15:30:33.709Z,99172.66
2023-04-26T15:33:01.070Z,99165.94
2023-04-26T15:35:27.672Z,99168.88
2023-04-26T15:37:54.431Z,99158.75
2023-04-26T15:40:22.712Z,99158.59
2023-04-26T15:42:49.446Z,99158.31
2023-04-26T15:45:16.180Z,99159.72
2023-04-26T15:47:42.765Z,99149.59
2023-04-26T15:50:09.759Z,99157.13
2023-04-26T15:52:39.241Z,99152.59
2023-04-26T15:55:07.244Z,99159.03
2023-04-26T15:57:34.547Z,99154.59
2023-04-26T16:00:01.715Z,99157.88
2023-04-26T16:02:28.358Z,99159.97
2023-04-26T16:04:56.221Z,99163.16
2023-04-26T16:07:23.058Z,99157.59
2023-04-26T16:09:49.587Z,99162.94
2023-04-26T16:12:16.264Z,99159.38
2023-04-26T16:14:42.761Z,99155.34
2023-04-26T16:17:09.415Z,99157.59
2023-04-26T16:19:36.020Z,99145.78
2023-04-26T16:22:03.309Z,99154.44
2023-04-26T16:24:30.273Z,99143.56
2023-04-26T16:26:57.441Z,99142.69
2023-04-26T16:29:25.000Z,99134.69
2023-04-26T16:31:51.876Z,99140.31
2023-04-26T16:34:19.988Z,99145.47
2023-04-26T16:36:46.931Z,99135.78
2023-04-26T16:39:15.755Z,99129.56
2023-04-26T16:41:43.079Z,99131.53
2023-04-26T16:44:10.051Z,99137.06
2023-04-26T16:46:37.258Z,99136.78
2023-04-26T16:49:09.270Z,99132.44
2023-04-26T16:51:37.920Z,99133.59
2023-04-26T16:54:04.639Z,99143.78
2023-04-26T16:56:32.150Z,99135.53
2023-04-26T16:58:59.701Z,99134.91
2023-04-26T17:01:27.593Z,99146.13
2023-04-26T17:03:55.701Z,99137.34
2023-04-26T17:06:22.783Z,99137.91
2023-04-26T17:08:51.023Z,99142.81
2023-04-26T17:11:17.721Z,99152.59
2023-04-26T17:13:44.373Z,99150.81
2023-04-26T17:16:11.144Z,99147.06
2023-04-26T17:18:38.214Z,99148.47
2023-04-26T17:21:05.942Z,99148.84
2023-04-26T17:23:33.637Z,99149.69
2023-04-26T17:26:01.962Z,99152.25
2023-04-26T17:28:29.139Z,99145.81
2023-04-26T17:30:55.811Z,99148.47
2023-04-26T17:33:22.497Z,99143.59
2023-04-26T17:35:49.198Z,99144.84
2023-04-26T17:38:16.553Z,99144.84
2023-04-26T17:40:44.546Z,99142.81
2023-04-26T17:43:15.437Z,99145.06
2023-04-26T17:45:42.037Z,99155.06
2023-04-26T17:48:12.777Z,99156.50
2023-04-26T17:50:39.923Z,99161.72
2023-04-26T17:53:06.427Z,99158.94
2023-04-26T17:55:33.047Z,99161.38
2023-04-26T17:57:59.740Z,99166.44
2023-04-26T18:00:26.299Z,99169.44
2023-04-26T18:02:56.098Z,99172.13
2023-04-26T18:05:24.385Z,99166.16
2023-04-26T18:07:51.714Z,99167.16
2023-04-26T18:10:18.492Z,99170.31
2023-04-26T18:12:44.987Z,99174.94
2023-04-26T18:15:12.250Z,99177.28
2023-04-26T18:17:38.791Z,99175.44
2023-04-26T18:20:06.626Z,99181.63
2023-04-26T18:22:33.447Z,99178.94
2023-04-26T18:25:01.021Z,99186.91
2023-04-26T18:27:27.645Z,99185.91
2023-04-26T18:29:55.334Z,99187.41
2023-04-26T18:32:21.981Z,99188.34
2023-04-26T18:34:48.396Z,99188.34
2023-04-26T18:37:15.115Z,99195.28
2023-04-26T18:39:42.029Z,99198.59
2023-04-26T18:42:12.526Z,99192.78
2023-04-26T18:44:40.355Z,99205.84
2023-04-26T18:47:06.838Z,99199.09
2023-04-26T18:49:33.346Z,99198.56
2023-04-26T18:52:00.656Z,99202.72
2023-04-26T18:54:27.733Z,99208.50
2023-04-26T18:56:54.963Z,99213.59
2023-04-26T18:59:21.578Z,99212.09
2023-04-26T19:01:49.071Z,99222.63
2023-04-26T19:04:15.947Z,99218.81
2023-04-26T19:06:42.553Z,99223.63
2023-04-26T19:09:12.850Z,99225.47
2023-04-26T19:11:41.885Z,99232.75
2023-04-26T19:14:08.393Z,99234.13
2023-04-26T19:16:35.898Z,99242.47
2023-04-26T19:19:03.173Z,99240.78
2023-04-26T19:21:29.726Z,99242.31
2023-04-26T19:23:56.356Z,99244.22
2023-04-26T19:26:22.789Z,99244.06
2023-04-26T19:28:49.448Z,99244.22
2023-04-26T19:31:15.922Z,99246.84
2023-04-26T19:33:42.468Z,99243.59
2023-04-26T19:36:10.537Z,99245.69
2023-04-26T19:38:37.149Z,99248.84
2023-04-26T19:41:03.672Z,99259.00
2023-04-26T19:43:30.158Z,99255.44
2023-04-26T19:45:56.715Z,99257.56
2023-04-26T19:48:23.161Z,99256.94
2023-04-26T19:50:49.660Z,99256.63
2023-04-26T19:53:16.215Z,99248.19
2023-04-26T19:55:43.192Z,99248.56
2023-04-26T19:58:11.017Z,99251.09
2023-04-26T20:00:39.773Z,99258.16
2023-04-26T20:03:07.005Z,99262.44
2023-04-26T20:05:34.167Z,99260.50
2023-04-26T20:08:01.644Z,99264.03
2023-04-26T20:10:34.632Z,99267.63
2023-04-26T20:13:01.550Z,99267.66
2023-04-26T20:15:28.433Z,99267.41
2023-04-26T20:17:55.700Z,99263.63
2023-04-26T20:20:22.332Z,99268.91
2023-04-26T20:22:48.923Z,99264.34
2023-04-26T20:25:15.784Z,99269.75
2023-04-26T20:27:42.309Z,99276.38
2023-04-26T20:30:09.509Z,99270.03
2023-04-26T20:32:36.155Z,99273.50
2023-04-26T20:35:02.873Z,99267.00
2023-04-26T20:37:29.360Z,99267.56
2023-04-26T20:39:56.555Z,99271.16
2023-04-26T20:42:24.559Z,99275.91
2023-04-26T20:44:51.345Z,99267.38
2023-04-26T20:47:18.171Z,99272.00
2023-04-26T20:49:44.734Z,99270.03
2023-04-26T20:52:11.594Z,99267.56
2023-04-26T20:54:38.064Z,99270.34
2023-04-26T20:57:04.567Z,99269.50
2023-04-26T20:59:31.345Z,99279.78
2023-04-26T21:01:57.989Z,99275.75
2023-04-26T21:04:24.940Z,99280.59
2023-04-26T21:06:51.661Z,99276.44
2023-04-26T21:09:18.111Z,99274.22
2023-04-26T21:11:44.682Z,99274.75
2023-04-26T21:14:13.487Z,99278.38
2023-04-26T21:16:40.009Z,99268.03
2023-04-26T21:19:06.735Z,99278.91
2023-04-26T21:21:33.698Z,99274.78
2023-04-26T21:24:00.848Z,99276.00
2023-04-26T21:26:27.405Z,99273.94
2023-04-26T21:28:53.825Z,99270.63
2023-04-26T21:31:20.433Z,99271.97
2023-04-26T21:33:46.942Z,99271.16
2023-04-26T21:36:13.487Z,99279.88
2023-04-26T21:38:40.024Z,99271.41
2023-04-26T21:41:06.487Z,99274.19
2023-04-26T21:43:33.019Z,99284.75
2023-04-26T21:45:59.460Z,99286.16
2023-04-26T21:48:26.693Z,99285.88
2023-04-26T21:50:53.488Z,99289.72
2023-04-26T21:53:20.385Z,99287.25
2023-04-26T21:55:54.633Z,99289.47
2023-04-26T21:58:22.869Z,99284.34
2023-04-26T22:00:50.720Z,99287.50
2023-04-26T22:03:19.639Z,99291.66
2023-04-26T22:05:46.327Z,99291.66
2023-04-26T22:08:12.782Z,99295.34
2023-04-26T22:10:39.328Z,99294.69
2023-04-26T22:13:05.818Z,99301.69
2023-04-26T22:15:32.435Z,99307.25
2023-04-26T22:17:59.143Z,99306.75
2023-04-26T22:20:26.514Z,99299.69
2023-04-26T22:22:53.580Z,99313.47
2023-04-26T22:25:20.088Z,99317.47
2023-04-26T22:27:46.579Z,99311.94
2023-04-26T22:30:24.791Z,99313.03
2023-04-26T22:32:55.316Z,99315.00
2023-04-26T22:35:23.885Z,99315.03
2023-04-26T22:37:51.313Z,99313.88
2023-04-26T22:40:17.969Z,99324.78
2023-04-26T22:42:44.800Z,99325.50
2023-04-26T22:45:12.889Z,99327.09
2023-04-26T22:47:41.384Z,99326.91
2023-04-26T22:50:08.848Z,99329.47
2023-04-26T22:52:35.741Z,99323.69
2023-04-26T22:55:02.804Z,99327.56
2023-04-26T22:57:31.205Z,99329.03
2023-04-26T22:59:57.980Z,99327.78
2023-04-26T23:02:24.785Z,99324.66
2023-04-26T23:04:51.442Z,99325.81
2023-04-26T23:07:18.060Z,99323.97
2023-04-26T23:09:44.828Z,99318.13
2023-04-26T23:12:11.418Z,99320.72
2023-04-26T23:14:37.983Z,99319.50
2023-04-26T23:17:05.378Z,99322.50
2023-04-26T23:19:32.856Z,99320.03
2023-04-26T23:21:59.349Z,99315.63
2023-04-26T23:24:26.078Z,99321.13
2023-04-26T23:26:52.490Z,99320.94
2023-04-26T23:29:18.951Z,99314.53
2023-04-26T23:31:45.680Z,99324.97
2023-04-26T23:34:12.142Z,99333.50
2023-04-26T23:36:38.590Z,99329.41
2023-04-26T23:39:05.111Z,99323.84
2023-04-26T23:41:31.751Z,99324.41
2023-04-26T23:43:58.231Z,99325.66
2023-04-26T23:46:24.713Z,99328.59
2023-04-26T23:48:51.286Z,99330.41
2023-04-26T23:51:17.783Z,99324.53
2023-04-26T23:53:44.782Z,99319.22
2023-04-26T23:56:11.433Z,99320.34
2023-04-26T23:58:37.931Z,99325.84
